createdAt,value
2023-01-19T00:02:28.127Z,40.30
2023-01-19T00:06:32.245Z,39.80
2023-01-19T00:10:27.207Z,38.20
2023-01-19T00:14:22.714Z,41.80
2023-01-19T00:18:26.665Z,37.90
2023-01-19T00:25:36.148Z,36.30
2023-01-19T00:29:41.265Z,39.00
2023-01-19T00:33:37.431Z,37.20
2023-01-19T00:37:41.430Z,36.70
2023-01-19T00:41:38.334Z,39.00
2023-01-19T00:45:33.842Z,37.00
2023-01-19T00:49:29.048Z,36.50
2023-01-19T00:53:16.042Z,36.00
2023-01-19T00:57:11.406Z,36.90
2023-01-19T01:01:09.533Z,36.90
2023-01-19T01:04:48.451Z,38.60
2023-01-19T01:08:35.694Z,36.60
2023-01-19T01:12:54.966Z,35.30
2023-01-19T01:17:01.959Z,36.00
2023-01-19T01:21:06.114Z,38.30
2023-01-19T01:24:59.947Z,40.40
2023-01-19T01:28:55.434Z,37.40
2023-01-19T01:32:59.726Z,36.10
2023-01-19T01:36:54.854Z,35.60
2023-01-19T01:40:45.157Z,36.10
2023-01-19T01:45:00.847Z,34.70
2023-01-19T01:49:09.688Z,37.30
2023-01-19T01:53:14.625Z,35.80
2023-01-19T01:57:21.354Z,34.00
2023-01-19T02:01:23.906Z,37.10
2023-01-19T02:05:13.586Z,34.10
2023-01-19T02:09:34.118Z,34.10
2023-01-19T02:13:40.795Z,33.90
2023-01-19T02:17:44.689Z,35.50
2023-01-19T02:21:54.234Z,36.00
2023-01-19T02:25:58.400Z,35.50
2023-01-19T02:30:01.258Z,32.40
2023-01-19T02:33:55.991Z,33.60
2023-01-19T02:38:00.153Z,35.40
2023-01-19T02:42:04.119Z,34.70
2023-01-19T02:46:08.148Z,33.50
2023-01-19T02:50:12.265Z,31.90
2023-01-19T02:54:20.007Z,33.90
2023-01-19T02:58:32.862Z,31.80
2023-01-19T03:02:44.560Z,32.20
2023-01-19T03:06:40.982Z,33.80
2023-01-19T03:11:00.132Z,32.30
2023-01-19T03:15:04.156Z,31.00
2023-01-19T03:19:08.061Z,32.60
2023-01-19T03:23:11.885Z,32.30
2023-01-19T03:27:18.735Z,35.00
2023-01-19T03:31:25.734Z,35.00
2023-01-19T03:35:29.583Z,36.20
2023-01-19T03:39:37.481Z,34.40
2023-01-19T03:43:41.496Z,33.10
2023-01-19T03:47:45.399Z,30.50
2023-01-19T03:51:49.264Z,31.80
2023-01-19T03:55:45.938Z,32.80
2023-01-19T03:59:49.871Z,32.10
2023-01-19T04:03:53.796Z,33.10
2023-01-19T04:07:59.543Z,32.50
2023-01-19T04:12:03.423Z,30.40
2023-01-19T04:15:59.779Z,32.30
2023-01-19T04:20:04.011Z,31.40
2023-01-19T04:24:07.950Z,33.40
2023-01-19T04:28:04.852Z,33.40
2023-01-19T04:32:09.859Z,30.60
2023-01-19T04:36:14.614Z,34.40
2023-01-19T04:40:19.527Z,28.80
2023-01-19T04:44:24.463Z,27.60
2023-01-19T04:48:28.574Z,29.10
2023-01-19T04:52:35.170Z,28.50
2023-01-19T04:56:39.197Z,29.90
2023-01-19T05:00:43.430Z,25.90
2023-01-19T05:04:30.511Z,24.40
2023-01-19T05:08:34.576Z,24.40
2023-01-19T05:12:39.344Z,24.70
2023-01-19T05:16:43.433Z,23.70
2023-01-19T05:20:48.820Z,25.10
2023-01-19T05:24:52.371Z,25.70
2023-01-19T05:28:56.325Z,25.60
2023-01-19T05:33:00.482Z,26.30
2023-01-19T05:37:04.878Z,25.90
2023-01-19T05:41:10.182Z,27.40
2023-01-19T05:45:14.049Z,25.20
2023-01-19T05:49:46.243Z,29.70
2023-01-19T05:53:51.117Z,27.40
2023-01-19T05:57:55.305Z,26.50
2023-01-19T06:01:51.815Z,24.40
2023-01-19T06:05:55.839Z,25.00
2023-01-19T06:09:45.799Z,22.80
2023-01-19T06:13:49.650Z,24.80
2023-01-19T06:17:53.870Z,24.10
2023-01-19T06:21:49.874Z,22.90
2023-01-19T06:25:54.482Z,21.70
2023-01-19T06:29:58.560Z,23.30
2023-01-19T06:34:02.600Z,22.90
2023-01-19T06:37:56.375Z,21.00
2023-01-19T06:42:00.397Z,21.40
2023-01-19T06:46:04.625Z,21.10
2023-01-19T06:50:08.627Z,21.20
2023-01-19T06:54:12.693Z,21.60
2023-01-19T06:58:07.341Z,18.90
2023-01-19T07:02:00.812Z,22.80
2023-01-19T07:06:17.286Z,19.20
2023-01-19T07:10:16.566Z,18.60
2023-01-19T07:14:19.388Z,20.40
2023-01-19T07:18:12.917Z,19.30
2023-01-19T07:22:07.072Z,20.70
2023-01-19T07:26:12.069Z,20.70
2023-01-19T07:30:16.003Z,19.30
2023-01-19T07:34:13.010Z,19.20
2023-01-19T07:38:18.062Z,19.20
2023-01-19T07:42:25.101Z,18.20
2023-01-19T07:46:29.931Z,19.70
2023-01-19T07:50:33.833Z,31.50
2023-01-19T07:54:26.471Z,26.20
2023-01-19T07:58:29.024Z,24.80
2023-01-19T08:02:34.222Z,24.00
2023-01-19T08:06:38.076Z,22.70
2023-01-19T08:10:44.070Z,23.60
2023-01-19T08:14:47.977Z,25.70
2023-01-19T08:18:55.901Z,22.90
2023-01-19T08:22:42.440Z,19.30
2023-01-19T08:26:40.806Z,20.20
2023-01-19T08:30:45.204Z,19.20
2023-01-19T08:34:49.409Z,17.50
2023-01-19T08:38:53.354Z,18.30
2023-01-19T08:42:50.002Z,17.70
2023-01-19T08:46:54.936Z,21.40
2023-01-19T08:50:59.010Z,47.80
2023-01-19T08:55:02.954Z,23.10
2023-01-19T08:59:10.412Z,19.70
2023-01-19T09:03:14.770Z,21.50
2023-01-19T09:07:18.671Z,20.40
2023-01-19T09:11:25.237Z,20.40
2023-01-19T09:15:29.158Z,19.50
2023-01-19T09:19:34.885Z,20.30
2023-01-19T09:23:39.113Z,22.90
2023-01-19T09:27:42.685Z,21.80
2023-01-19T09:31:46.756Z,20.80
2023-01-19T09:35:50.682Z,22.50
2023-01-19T09:39:54.635Z,22.00
2023-01-19T09:44:04.675Z,22.20
2023-01-19T09:48:14.346Z,19.00
2023-01-19T09:52:18.348Z,16.80
2023-01-19T09:56:22.356Z,17.70
2023-01-19T10:00:32.398Z,13.70
2023-01-19T10:04:48.327Z,14.30
2023-01-19T10:08:52.319Z,13.90
2023-01-19T10:13:02.416Z,15.50
2023-01-19T10:17:21.868Z,13.80
2023-01-19T10:21:40.832Z,18.40
2023-01-19T10:25:44.819Z,18.90
2023-01-19T10:29:45.591Z,17.10
2023-01-19T10:33:49.674Z,19.10
2023-01-19T10:38:08.599Z,18.10
2023-01-19T10:42:15.490Z,20.00
2023-01-19T10:46:12.482Z,22.40
2023-01-19T10:50:19.354Z,24.20
2023-01-19T10:54:24.436Z,20.00
2023-01-19T10:58:28.398Z,18.90
2023-01-19T11:02:44.664Z,20.70
2023-01-19T11:06:54.532Z,21.00
2023-01-19T11:11:13.513Z,20.40
2023-01-19T11:15:20.541Z,18.90
2023-01-19T11:19:33.515Z,18.30
2023-01-19T11:23:46.267Z,19.40
2023-01-19T11:27:50.179Z,22.10
2023-01-19T11:31:57.161Z,20.50
2023-01-19T11:36:06.904Z,25.40
2023-01-19T11:40:26.283Z,24.10
2023-01-19T11:44:29.536Z,22.90
2023-01-19T11:48:33.107Z,25.60
2023-01-19T11:52:44.226Z,24.40
2023-01-19T11:56:29.993Z,23.90
2023-01-19T12:00:34.235Z,23.30
2023-01-19T12:04:44.345Z,25.00
2023-01-19T12:08:39.167Z,22.00
2023-01-19T12:12:43.246Z,24.50
2023-01-19T12:16:48.250Z,23.50
2023-01-19T12:20:50.764Z,24.60
2023-01-19T12:24:55.674Z,24.60
2023-01-19T12:28:58.700Z,24.90
2023-01-19T12:33:13.473Z,23.10
2023-01-19T12:37:17.455Z,24.00
2023-01-19T12:41:17.299Z,21.80
2023-01-19T12:45:22.293Z,23.50
2023-01-19T12:49:26.210Z,19.10
2023-01-19T12:53:32.093Z,21.40
2023-01-19T12:57:30.624Z,21.40
2023-01-19T13:01:52.869Z,23.60
2023-01-19T13:06:12.161Z,22.10
2023-01-19T13:10:17.899Z,20.70
2023-01-19T13:14:21.902Z,23.40
2023-01-19T13:18:23.797Z,23.50
2023-01-19T13:22:27.671Z,21.90
2023-01-19T13:26:31.623Z,24.00
2023-01-19T13:30:29.782Z,22.60
2023-01-19T13:34:17.544Z,23.80
2023-01-19T13:38:21.610Z,25.10
2023-01-19T13:42:25.980Z,25.40
2023-01-19T13:46:30.203Z,24.60
2023-01-19T13:50:36.950Z,25.10
2023-01-19T13:54:40.967Z,28.50
2023-01-19T13:58:45.002Z,27.10
2023-01-19T14:02:49.059Z,28.90
2023-01-19T14:06:55.198Z,29.20
2023-01-19T14:11:02.427Z,29.80
2023-01-19T14:15:09.317Z,27.60
2023-01-19T14:19:05.943Z,30.60
2023-01-19T14:23:19.738Z,30.90
2023-01-19T14:27:51.332Z,30.70
2023-01-19T14:31:58.011Z,31.70
2023-01-19T14:36:03.136Z,29.50
2023-01-19T14:40:06.197Z,30.10
2023-01-19T14:44:10.083Z,31.50
2023-01-19T14:48:26.307Z,33.30
2023-01-19T14:52:31.251Z,33.30
2023-01-19T14:56:42.882Z,32.80
2023-01-19T15:00:56.133Z,34.20
2023-01-19T15:04:59.528Z,33.00
2023-01-19T15:08:53.127Z,31.80
2023-01-19T15:12:57.242Z,36.30
2023-01-19T15:17:01.105Z,36.50
2023-01-19T15:21:06.271Z,38.80
2023-01-19T15:25:10.348Z,39.90
2023-01-19T15:29:14.251Z,39.70
2023-01-19T15:33:18.159Z,40.30
2023-01-19T15:37:22.115Z,41.00
2023-01-19T15:41:25.523Z,39.20
2023-01-19T15:45:29.447Z,37.10
2023-01-19T15:49:23.585Z,40.00
2023-01-19T15:53:27.493Z,41.10
2023-01-19T15:57:31.350Z,45.40
2023-01-19T16:02:02.518Z,43.30
2023-01-19T16:06:07.068Z,39.70
2023-01-19T16:10:09.911Z,41.40
2023-01-19T16:14:05.159Z,40.20
2023-01-19T16:18:10.147Z,40.70
2023-01-19T16:22:14.003Z,41.90
2023-01-19T16:26:17.940Z,42.80
2023-01-19T16:30:06.057Z,41.10
2023-01-19T16:34:01.043Z,46.90
2023-01-19T16:38:07.005Z,50.80
2023-01-19T16:42:11.098Z,51.50
2023-01-19T16:46:15.071Z,49.60
2023-01-19T16:50:13.288Z,53.20
2023-01-19T16:54:16.266Z,48.80
2023-01-19T16:58:20.811Z,52.10
2023-01-19T17:02:27.156Z,49.90
2023-01-19T17:06:33.444Z,54.20
2023-01-19T17:10:37.638Z,52.50
2023-01-19T17:14:41.965Z,53.30
2023-01-19T17:18:45.760Z,56.80
2023-01-19T17:22:49.963Z,53.90
2023-01-19T17:26:58.280Z,53.00
2023-01-19T17:30:55.191Z,52.40
2023-01-19T17:34:59.336Z,55.10
2023-01-19T17:39:03.512Z,51.10
2023-01-19T17:43:07.414Z,46.40
2023-01-19T17:47:12.292Z,50.10
2023-01-19T17:51:08.227Z,45.90
2023-01-19T17:55:11.380Z,51.50
2023-01-19T17:59:15.538Z,49.90
2023-01-19T18:03:19.475Z,49.60
2023-01-19T18:07:23.261Z,52.70
2023-01-19T18:11:33.365Z,53.10
2023-01-19T18:15:37.303Z,54.30
2023-01-19T18:19:42.415Z,50.00
2023-01-19T18:23:46.387Z,48.30
2023-01-19T18:27:50.458Z,46.10
2023-01-19T18:31:44.951Z,49.20
2023-01-19T18:35:49.111Z,47.40
2023-01-19T18:39:42.535Z,44.20
2023-01-19T18:43:46.439Z,45.40
2023-01-19T18:47:50.615Z,48.70
2023-01-19T18:51:55.717Z,44.40
2023-01-19T18:55:59.666Z,46.40
2023-01-19T19:00:03.833Z,46.40
2023-01-19T19:04:07.838Z,47.40
2023-01-19T19:08:02.958Z,45.40
2023-01-19T19:12:06.684Z,48.10
2023-01-19T19:16:04.083Z,48.80
2023-01-19T19:20:08.189Z,49.10
2023-01-19T19:27:51.450Z,60.70
2023-01-19T19:32:06.565Z,55.30
2023-01-19T19:36:10.424Z,56.10
2023-01-19T19:40:14.783Z,65.80
2023-01-19T19:44:13.238Z,62.20
2023-01-19T19:48:11.347Z,63.20
2023-01-19T19:52:19.203Z,66.90
2023-01-19T19:56:22.454Z,70.30
2023-01-19T20:00:28.382Z,71.30
2023-01-19T20:04:32.933Z,70.20
2023-01-19T20:08:37.487Z,71.30
2023-01-19T20:12:43.435Z,78.70
2023-01-19T20:16:48.397Z,75.30
2023-01-19T20:20:53.549Z,79.80
2023-01-19T20:24:53.678Z,81.70
2023-01-19T20:32:37.438Z,74.50
2023-01-19T20:36:42.644Z,63.80
2023-01-19T20:40:47.885Z,55.50
2023-01-19T20:44:52.068Z,54.10
2023-01-19T20:48:55.964Z,52.20
2023-01-19T20:53:01.171Z,52.80
2023-01-19T20:57:05.219Z,53.00
2023-01-19T21:01:09.623Z,51.90
2023-01-19T21:08:57.920Z,53.10
2023-01-19T21:16:28.976Z,50.10
2023-01-19T21:20:34.379Z,49.20
2023-01-19T21:24:29.183Z,53.30
2023-01-19T21:28:33.145Z,50.70
2023-01-19T21:32:35.819Z,53.20
2023-01-19T21:36:40.334Z,51.20
2023-01-19T21:40:45.153Z,48.90
2023-01-19T21:44:49.432Z,48.90
2023-01-19T21:48:54.994Z,50.90
2023-01-19T21:52:51.517Z,49.30
2023-01-19T21:56:55.590Z,49.10
2023-01-19T22:00:52.056Z,49.20
2023-01-19T22:04:56.038Z,58.60
2023-01-19T22:09:00.011Z,78.10
2023-01-19T22:13:04.023Z,75.00
2023-01-19T22:17:07.911Z,63.60
2023-01-19T22:21:10.906Z,61.30
2023-01-19T22:25:06.742Z,58.30
2023-01-19T22:29:10.705Z,61.70
2023-01-19T22:33:15.767Z,55.40
2023-01-19T22:37:19.659Z,51.70
2023-01-19T22:41:17.180Z,58.80
2023-01-19T22:45:22.309Z,55.70
2023-01-19T22:49:27.295Z,58.30
2023-01-19T22:53:24.635Z,55.40
2023-01-19T22:57:30.531Z,52.40
2023-01-19T23:01:34.540Z,53.40
2023-01-19T23:05:30.693Z,55.70
2023-01-19T23:09:34.674Z,54.80
2023-01-19T23:13:37.443Z,54.30
2023-01-19T23:17:41.474Z,53.10
2023-01-19T23:21:43.050Z,56.20
2023-01-19T23:25:47.234Z,52.30
2023-01-19T23:29:54.030Z,52.80
2023-01-19T23:33:52.033Z,51.50
2023-01-19T23:37:55.976Z,50.90
2023-01-19T23:41:59.935Z,49.90
2023-01-19T23:46:04.105Z,54.10
2023-01-19T23:50:06.915Z,47.30
2023-01-19T23:54:03.833Z,47.40
2023-01-19T23:58:08.918Z,48.00
